Time;durP1;ratioP1;P1;durP2;ratioP2;P2;SDS_P1;SDS_P2;PMS_P1;PMS_P2;Temp;Humidity;BMP_temperature;BMP_pressure;BME280_temperature;BME280_humidity;BME280_pressure;Samples;Min_cycle;Max_cycle;Signal;HPM_P1;HPM_P2
2022/08/25 00:00:19;;;;;;;1999.90;999.90;;;;;;;-144.65;100.00;64500.88;5011823;28;20018;-78
2022/08/25 00:02:45;;;;;;;1999.90;999.90;;;;;;;-144.65;100.00;64500.88;5026306;28;20031;-78
2022/08/25 00:05:10;;;;;;;1999.90;999.90;;;;;;;-144.65;100.00;64500.88;5037891;28;20033;-78
2022/08/25 00:07:36;;;;;;;1999.90;999.90;;;;;;;-144.65;100.00;64500.88;4983016;28;20053;-78
2022/08/25 00:10:02;;;;;;;1999.90;999.90;;;;;;;-144.65;100.00;64500.88;5017749;28;20025;-78
2022/08/25 00:12:28;;;;;;;1999.90;999.90;;;;;;;-144.65;100.00;64500.88;5031420;28;20513;-79
2022/08/25 00:14:54;;;;;;;1999.90;999.90;;;;;;;-144.65;100.00;64500.88;5011295;28;20114;-78
2022/08/25 00:17:20;;;;;;;1999.90;999.90;;;;;;;-144.65;100.00;64500.88;5021648;28;20049;-79
2022/08/25 00:19:45;;;;;;;1999.90;999.90;;;;;;;-144.65;100.00;64500.88;5024722;28;20014;-77
2022/08/25 00:22:13;;;;;;;1999.90;999.90;;;;;;;-144.65;100.00;64500.88;5024559;28;20048;-78
2022/08/25 00:24:39;;;;;;;1999.90;999.90;;;;;;;-144.65;100.00;64500.88;5024534;28;20386;-78
2022/08/25 00:27:05;;;;;;;1999.90;999.90;;;;;;;-144.65;100.00;64500.88;5006647;28;20030;-78
2022/08/25 00:29:32;;;;;;;1999.90;999.90;;;;;;;-144.65;100.00;64500.88;5025901;28;20683;-78
2022/08/25 00:31:58;;;;;;;1999.90;999.90;;;;;;;-144.65;100.00;64500.88;5027611;28;20022;-78
2022/08/25 00:34:33;;;;;;;1999.90;999.90;;;;;;;-144.65;100.00;64500.88;5027670;28;20029;-79
2022/08/25 00:36:58;;;;;;;1999.90;999.90;;;;;;;-144.65;100.00;64500.88;5024593;28;20021;-78
2022/08/25 00:39:24;;;;;;;1999.90;999.90;;;;;;;-144.65;100.00;64500.88;5007995;28;20030;-77
2022/08/25 00:41:52;;;;;;;1999.90;999.90;;;;;;;-144.65;100.00;64500.88;5036074;28;20028;-77
2022/08/25 00:44:18;;;;;;;1999.90;999.90;;;;;;;-144.65;100.00;64500.88;5013297;28;20057;-78
2022/08/25 00:46:53;;;;;;;1999.90;999.90;;;;;;;-144.65;100.00;64500.88;5022439;28;20030;-78
2022/08/25 00:49:27;;;;;;;1999.90;999.90;;;;;;;-144.65;100.00;64500.88;5003653;28;20113;-79
2022/08/25 00:51:57;;;;;;;1999.90;999.90;;;;;;;-144.65;100.00;64500.88;5020204;28;20057;-77
2022/08/25 00:54:27;;;;;;;1999.90;999.90;;;;;;;-144.65;100.00;64500.88;5021819;28;20402;-79
2022/08/25 00:56:54;;;;;;;1999.90;999.90;;;;;;;-144.65;100.00;64500.88;5004415;28;20030;-78
2022/08/25 00:59:22;;;;;;;1999.90;999.90;;;;;;;-144.65;100.00;64500.88;5005971;28;20078;-78
2022/08/25 01:01:48;;;;;;;1999.90;999.90;;;;;;;-144.65;100.00;64500.88;5021258;28;20085;-77
2022/08/25 01:04:14;;;;;;;1999.90;999.90;;;;;;;-144.65;100.00;64500.88;5023103;28;20018;-78
2022/08/25 01:06:44;;;;;;;1999.90;999.90;;;;;;;-144.65;100.00;64500.88;5006559;28;20072;-78
2022/08/25 01:09:12;;;;;;;1999.90;999.90;;;;;;;-144.65;100.00;64500.88;5003406;28;20026;-78
2022/08/25 01:11:43;;;;;;;1999.90;999.90;;;;;;;-144.65;100.00;64500.88;5003306;28;20028;-78
2022/08/25 01:14:10;;;;;;;1999.90;999.90;;;;;;;-144.65;100.00;64500.88;4985313;28;20057;-78
2022/08/25 01:16:37;;;;;;;1999.90;999.90;;;;;;;-144.65;100.00;64500.88;5004081;28;20114;-79
2022/08/25 01:19:05;;;;;;;1999.90;999.90;;;;;;;-144.65;100.00;64500.88;5003458;28;20058;-78
2022/08/25 01:21:38;;;;;;;1999.90;999.90;;;;;;;-144.65;100.00;64500.88;4997571;28;20038;-78
2022/08/25 01:24:04;;;;;;;1999.90;999.90;;;;;;;-144.65;100.00;64500.88;4996223;28;20022;-78
2022/08/25 01:26:32;;;;;;;1999.90;999.90;;;;;;;-144.65;100.00;64500.88;4979397;28;20109;-78
2022/08/25 01:31:46;;;;;;;1999.90;999.90;;;;;;;-144.65;100.00;64500.88;4996465;28;20049;-79
2022/08/25 01:34:12;;;;;;;1999.90;999.90;;;;;;;-144.65;100.00;64500.88;4978878;28;20080;-78
2022/08/25 01:36:39;;;;;;;1999.90;999.90;;;;;;;-144.65;100.00;64500.88;4996455;28;20050;-79
2022/08/25 01:39:05;;;;;;;1999.90;999.90;;;;;;;-144.65;100.00;64500.88;4997299;28;21500;-78
2022/08/25 01:41:33;;;;;;;1999.90;999.90;;;;;;;-144.65;100.00;64500.88;4997211;28;20499;-79
2022/08/25 01:43:59;;;;;;;1999.90;999.90;;;;;;;-144.65;100.00;64500.88;4999551;28;20164;-77
2022/08/25 01:46:25;;;;;;;1999.90;999.90;;;;;;;-144.65;100.00;64500.88;5003504;28;20010;-78
2022/08/25 01:48:51;;;;;;;1999.90;999.90;;;;;;;-144.65;100.00;64500.88;5001772;28;20022;-78
2022/08/25 01:51:24;;;;;;;1999.90;999.90;;;;;;;-144.65;100.00;64500.88;5002486;28;20048;-77
2022/08/25 01:53:49;;;;;;;1999.90;999.90;;;;;;;-144.65;100.00;64500.88;4990519;28;20030;-78
2022/08/25 01:56:16;;;;;;;1999.90;999.90;;;;;;;-144.65;100.00;64500.88;5008798;28;20026;-78
2022/08/25 01:58:46;;;;;;;1999.90;999.90;;;;;;;-144.65;100.00;64500.88;4989337;28;20014;-78
2022/08/25 02:01:21;;;;;;;1999.90;999.90;;;;;;;-144.65;100.00;64500.88;4991585;28;20026;-78
2022/08/25 02:03:49;;;;;;;1999.90;999.90;;;;;;;-144.65;100.00;64500.88;5007486;28;20015;-78
2022/08/25 02:06:19;;;;;;;1999.90;999.90;;;;;;;-144.65;100.00;64500.88;5004148;28;20038;-78
2022/08/25 02:08:48;;;;;;;1999.90;999.90;;;;;;;-144.65;100.00;64500.88;5003538;28;20034;-78
2022/08/25 02:11:14;;;;;;;1999.90;999.90;;;;;;;-144.65;100.00;64500.88;5008358;28;20053;-78
2022/08/25 02:13:41;;;;;;;1999.90;999.90;;;;;;;-144.65;100.00;64500.88;5003308;28;20479;-78
2022/08/25 02:16:08;;;;;;;1999.90;999.90;;;;;;;-144.65;100.00;64500.88;4997905;28;20042;-78
2022/08/25 02:18:34;;;;;;;1999.90;999.90;;;;;;;-144.65;100.00;64500.88;4998547;28;20033;-78
2022/08/25 02:20:59;;;;;;;1999.90;999.90;;;;;;;-144.65;100.00;64500.88;4996411;28;20031;-78
2022/08/25 02:23:25;;;;;;;1999.90;999.90;;;;;;;-144.65;100.00;64500.88;4997046;28;20141;-78
2022/08/25 02:25:51;;;;;;;1999.90;999.90;;;;;;;-144.65;100.00;64500.88;4996756;28;20038;-78
2022/08/25 02:28:17;;;;;;;1999.90;999.90;;;;;;;-144.65;100.00;64500.88;4979294;28;20113;-78
2022/08/25 02:30:42;;;;;;;1999.90;999.90;;;;;;;-144.65;100.00;64500.88;4978695;28;20053;-79
2022/08/25 02:33:09;;;;;;;1999.90;999.90;;;;;;;-144.65;100.00;64500.88;4980531;28;20113;-78
2022/08/25 02:35:35;;;;;;;1999.90;999.90;;;;;;;-144.65;100.00;64500.88;4986415;28;20027;-78
2022/08/25 02:38:01;;;;;;;1999.90;999.90;;;;;;;-144.65;100.00;64500.88;5005845;28;20031;-79
2022/08/25 02:40:26;;;;;;;1999.90;999.90;;;;;;;-144.65;100.00;64500.88;4987424;28;20518;-78
2022/08/25 02:42:52;;;;;;;1999.90;999.90;;;;;;;-144.65;100.00;64500.88;4989264;28;20030;-78
2022/08/25 02:45:18;;;;;;;1999.90;999.90;;;;;;;-144.65;100.00;64500.88;5011262;28;20026;-78
2022/08/25 02:47:44;;;;;;;1999.90;999.90;;;;;;;-144.65;100.00;64500.88;5012860;28;20030;-78
2022/08/25 02:50:10;;;;;;;1999.90;999.90;;;;;;;-144.65;100.00;64500.88;5006820;28;20067;-78
2022/08/25 02:52:37;;;;;;;1999.90;999.90;;;;;;;-144.65;100.00;64500.88;5008765;28;20038;-78
2022/08/25 02:55:05;;;;;;;1999.90;999.90;;;;;;;-144.65;100.00;64500.88;5002651;28;20031;-78
2022/08/25 02:57:30;;;;;;;1999.90;999.90;;;;;;;-144.65;100.00;64500.88;5001803;28;20064;-79
2022/08/25 02:59:56;;;;;;;1999.90;999.90;;;;;;;-144.65;100.00;64500.88;4984493;28;20023;-78
2022/08/25 03:02:23;;;;;;;1999.90;999.90;;;;;;;-144.65;100.00;64500.88;4997395;28;20037;-78
2022/08/25 03:04:49;;;;;;;1999.90;999.90;;;;;;;-144.65;100.00;64500.88;4984249;28;20431;-78
2022/08/25 03:07:14;;;;;;;1999.90;999.90;;;;;;;-144.65;100.00;64500.88;4997318;28;20057;-78
2022/08/25 03:09:40;;;;;;;1999.90;999.90;;;;;;;-144.65;100.00;64500.88;4982253;28;20026;-78
2022/08/25 03:12:05;;;;;;;1999.90;999.90;;;;;;;-144.65;100.00;64500.88;5003951;28;20022;-78
2022/08/25 03:14:31;;;;;;;1999.90;999.90;;;;;;;-144.65;100.00;64500.88;5001411;28;20037;-79
2022/08/25 03:16:56;;;;;;;1999.90;999.90;;;;;;;-144.65;100.00;64500.88;4999688;28;20471;-78
2022/08/25 03:19:23;;;;;;;1999.90;999.90;;;;;;;-144.65;100.00;64500.88;5002449;28;20018;-78
2022/08/25 03:21:51;;;;;;;1999.90;999.90;;;;;;;-144.65;100.00;64500.88;5002640;28;20053;-78
2022/08/25 03:24:16;;;;;;;1999.90;999.90;;;;;;;-144.65;100.00;64500.88;4984226;28;20037;-79
2022/08/25 03:26:54;;;;;;;1999.90;999.90;;;;;;;-144.65;100.00;64500.88;5007038;28;20022;-79
2022/08/25 03:29:28;;;;;;;1999.90;999.90;;;;;;;-144.65;100.00;64500.88;5010844;28;20069;-78
2022/08/25 03:31:54;;;;;;;1999.90;999.90;;;;;;;-144.65;100.00;64500.88;5035365;28;20024;-79
2022/08/25 03:34:21;;;;;;;1999.90;999.90;;;;;;;-144.65;100.00;64500.88;5043610;28;20038;-80
2022/08/25 03:36:49;;;;;;;1999.90;999.90;;;;;;;-144.65;100.00;64500.88;5042846;28;20033;-80
2022/08/25 03:39:19;;;;;;;1999.90;999.90;;;;;;;-144.65;100.00;64500.88;5043533;28;21059;-80
2022/08/25 03:41:45;;;;;;;1999.90;999.90;;;;;;;-144.65;100.00;64500.88;5025283;28;20049;-80
2022/08/25 03:44:11;;;;;;;1999.90;999.90;;;;;;;-144.65;100.00;64500.88;5027104;28;20044;-79
2022/08/25 03:46:40;;;;;;;1999.90;999.90;;;;;;;-144.65;100.00;64500.88;5045909;28;20061;-79
2022/08/25 03:49:08;;;;;;;1999.90;999.90;;;;;;;-144.65;100.00;64500.88;5043696;28;20029;-80
2022/08/25 03:51:40;;;;;;;1999.90;999.90;;;;;;;-144.65;100.00;64500.88;5026792;28;20516;-80
2022/08/25 03:54:08;;;;;;;1999.90;999.90;;;;;;;-144.65;100.00;64500.88;5015969;28;20057;-80
2022/08/25 03:56:36;;;;;;;1999.90;999.90;;;;;;;-144.65;100.00;64500.88;5026385;28;20036;-80
2022/08/25 03:59:02;;;;;;;1999.90;999.90;;;;;;;-144.65;100.00;64500.88;5009755;28;20050;-80
2022/08/25 04:01:27;;;;;;;1999.90;999.90;;;;;;;-144.65;100.00;64500.88;5027334;28;20026;-80
2022/08/25 04:03:53;;;;;;;1999.90;999.90;;;;;;;-144.65;100.00;64500.88;5019485;28;20042;-79
2022/08/25 04:06:19;;;;;;;1999.90;999.90;;;;;;;-144.65;100.00;64500.88;5023677;28;20056;-80
2022/08/25 04:08:45;;;;;;;1999.90;999.90;;;;;;;-144.65;100.00;64500.88;5025791;28;20058;-80
2022/08/25 04:11:21;;;;;;;1999.90;999.90;;;;;;;-144.65;100.00;64500.88;5027663;28;20110;-81
2022/08/25 04:13:48;;;;;;;1999.90;999.90;;;;;;;-144.65;100.00;64500.88;5030850;28;21014;-81
2022/08/25 04:16:23;;;;;;;1999.90;999.90;;;;;;;-144.65;100.00;64500.88;5032325;28;20041;-81
2022/08/25 04:18:50;;;;;;;1999.90;999.90;;;;;;;-144.65;100.00;64500.88;5025266;28;20041;-80
2022/08/25 04:21:19;;;;;;;1999.90;999.90;;;;;;;-144.65;100.00;64500.88;5030164;28;20093;-80
2022/08/25 04:23:47;;;;;;;1999.90;999.90;;;;;;;-144.65;100.00;64500.88;5030745;28;20033;-80
2022/08/25 04:26:18;;;;;;;1999.90;999.90;;;;;;;-144.65;100.00;64500.88;5031931;28;20389;-80
2022/08/25 04:28:44;;;;;;;1999.90;999.90;;;;;;;-144.65;100.00;64500.88;5030963;28;20021;-80
2022/08/25 04:31:13;;;;;;;1999.90;999.90;;;;;;;-144.65;100.00;64500.88;5012856;28;20029;-80
2022/08/25 04:33:38;;;;;;;1999.90;999.90;;;;;;;-144.65;100.00;64500.88;5030151;28;20052;-81
2022/08/25 04:36:05;;;;;;;1999.90;999.90;;;;;;;-144.65;100.00;64500.88;5031167;28;20069;-80
2022/08/25 04:38:32;;;;;;;1999.90;999.90;;;;;;;-144.65;100.00;64500.88;4997344;28;20397;-73
2022/08/25 04:40:58;;;;;;;1999.90;999.90;;;;;;;-144.65;100.00;64500.88;5012089;28;20042;-73
2022/08/25 04:43:24;;;;;;;1999.90;999.90;;;;;;;-144.65;100.00;64500.88;5011862;28;20398;-73
2022/08/25 04:45:51;;;;;;;1999.90;999.90;;;;;;;-144.65;100.00;64500.88;5011994;28;20040;-77
2022/08/25 04:48:16;;;;;;;1999.90;999.90;;;;;;;-144.65;100.00;64500.88;5001873;28;20048;-78
2022/08/25 04:50:43;;;;;;;1999.90;999.90;;;;;;;-144.65;100.00;64500.88;5015262;28;20470;-79
2022/08/25 04:53:09;;;;;;;1999.90;999.90;;;;;;;-144.65;100.00;64500.88;5005072;28;20033;-78
2022/08/25 04:55:46;;;;;;;1999.90;999.90;;;;;;;-144.65;100.00;64500.88;5014678;28;20026;-75
2022/08/25 04:58:13;;;;;;;1999.90;999.90;;;;;;;-144.65;100.00;64500.88;4995011;28;20030;-74
2022/08/25 05:00:40;;;;;;;1999.90;999.90;;;;;;;-144.65;100.00;64500.88;5012179;28;20119;-74
2022/08/25 05:03:05;;;;;;;1999.90;999.90;;;;;;;-144.65;100.00;64500.88;5012546;28;20385;-76
2022/08/25 05:05:35;;;;;;;1999.90;999.90;;;;;;;-144.65;100.00;64500.88;5014079;28;20026;-76
2022/08/25 05:08:00;;;;;;;1999.90;999.90;;;;;;;-144.65;100.00;64500.88;5012399;28;20034;-72
2022/08/25 05:10:26;;;;;;;1999.90;999.90;;;;;;;-144.65;100.00;64500.88;5011526;28;20393;-74
2022/08/25 05:12:51;;;;;;;1999.90;999.90;;;;;;;-144.65;100.00;64500.88;5011615;28;20065;-74
2022/08/25 05:18:01;;;;;;;1999.90;999.90;;;;;;;-144.65;100.00;64500.88;5011798;28;20041;-74
2022/08/25 05:20:27;;;;;;;1999.90;999.90;;;;;;;-144.65;100.00;64500.88;5011966;28;20781;-72
2022/08/25 05:22:53;;;;;;;1999.90;999.90;;;;;;;-144.65;100.00;64500.88;5011397;28;20026;-74
2022/08/25 05:25:18;;;;;;;1999.90;999.90;;;;;;;-144.65;100.00;64500.88;5011946;28;20493;-76
2022/08/25 05:27:43;;;;;;;1999.90;999.90;;;;;;;-144.65;100.00;64500.88;5013520;28;20473;-73
2022/08/25 05:30:10;;;;;;;1999.90;999.90;;;;;;;-144.65;100.00;64500.88;5017315;28;20038;-76
2022/08/25 05:32:36;;;;;;;1999.90;999.90;;;;;;;-144.65;100.00;64500.88;4990549;28;20042;-76
2022/08/25 05:35:01;;;;;;;1999.90;999.90;;;;;;;-144.65;100.00;64500.88;4994192;28;20401;-77
2022/08/25 05:37:27;;;;;;;1999.90;999.90;;;;;;;-144.65;100.00;64500.88;4993715;28;20034;-75
2022/08/25 05:39:52;;;;;;;1999.90;999.90;;;;;;;-144.65;100.00;64500.88;4992747;28;20054;-75
2022/08/25 05:42:18;;;;;;;1999.90;999.90;;;;;;;-144.65;100.00;64500.88;4997329;28;20068;-75
2022/08/25 05:44:43;;;;;;;1999.90;999.90;;;;;;;-144.65;100.00;64500.88;5012105;28;20029;-73
2022/08/25 05:47:10;;;;;;;1999.90;999.90;;;;;;;-144.65;100.00;64500.88;5011376;28;20109;-74
2022/08/25 05:49:35;;;;;;;1999.90;999.90;;;;;;;-144.65;100.00;64500.88;5011612;28;20140;-71
2022/08/25 05:52:00;;;;;;;1999.90;999.90;;;;;;;-144.65;100.00;64500.88;5010881;28;20518;-72
2022/08/25 05:54:26;;;;;;;1999.90;999.90;;;;;;;-144.65;100.00;64500.88;4993247;28;20029;-72
2022/08/25 05:56:51;;;;;;;1999.90;999.90;;;;;;;-144.65;100.00;64500.88;5010762;28;20034;-73
2022/08/25 05:59:16;;;;;;;1999.90;999.90;;;;;;;-144.65;100.00;64500.88;5011432;28;20037;-74
2022/08/25 06:04:26;;;;;;;1999.90;999.90;;;;;;;-144.65;100.00;64500.88;5014476;28;20108;-73
2022/08/25 06:06:53;;;;;;;1999.90;999.90;;;;;;;-144.65;100.00;64500.88;5012798;28;20089;-76
2022/08/25 06:09:19;;;;;;;1999.90;999.90;;;;;;;-144.65;100.00;64500.88;5010788;28;20034;-74
2022/08/25 06:11:46;;;;;;;1999.90;999.90;;;;;;;-144.65;100.00;64500.88;5010198;28;20037;-79
2022/08/25 06:14:14;;;;;;;1999.90;999.90;;;;;;;-144.65;100.00;64500.88;5019315;28;20509;-80
2022/08/25 06:16:39;;;;;;;1999.90;999.90;;;;;;;-144.65;100.00;64500.88;5005132;28;20483;-78
2022/08/25 06:19:07;;;;;;;1999.90;999.90;;;;;;;-144.65;100.00;64500.88;5032319;28;20037;-81
2022/08/25 06:21:33;;;;;;;1999.90;999.90;;;;;;;-144.65;100.00;64500.88;5030698;28;20030;-79
2022/08/25 06:23:58;;;;;;;1999.90;999.90;;;;;;;-144.65;100.00;64500.88;5024440;28;20089;-74
2022/08/25 06:26:24;;;;;;;1999.90;999.90;;;;;;;-144.65;100.00;64500.88;5018411;28;20441;-77
2022/08/25 06:28:51;;;;;;;1999.90;999.90;;;;;;;-144.65;100.00;64500.88;5012843;28;20034;-78
2022/08/25 06:31:17;;;;;;;1999.90;999.90;;;;;;;-144.65;100.00;64500.88;5011586;28;20500;-72
2022/08/25 06:33:43;;;;;;;1999.90;999.90;;;;;;;-144.65;100.00;64500.88;5010833;28;20057;-73
2022/08/25 06:36:08;;;;;;;1999.90;999.90;;;;;;;-144.65;100.00;64500.88;5014357;28;20049;-78
2022/08/25 06:38:34;;;;;;;1999.90;999.90;;;;;;;-144.65;100.00;64500.88;5012232;28;20030;-75
2022/08/25 06:41:04;;;;;;;1999.90;999.90;;;;;;;-144.65;100.00;64500.88;5009166;28;20084;-74
2022/08/25 06:43:31;;;;;;;1999.90;999.90;;;;;;;-144.65;100.00;64500.88;5009628;28;20642;-74
2022/08/25 06:45:57;;;;;;;1999.90;999.90;;;;;;;-144.65;100.00;64500.88;5011921;28;20052;-78
2022/08/25 06:48:23;;;;;;;1999.90;999.90;;;;;;;-144.65;100.00;64500.88;5007432;28;20457;-77
2022/08/25 06:50:48;;;;;;;1999.90;999.90;;;;;;;-144.65;100.00;64500.88;5012860;28;20368;-78
2022/08/25 06:53:13;;;;;;;1999.90;999.90;;;;;;;-144.65;100.00;64500.88;5004781;28;20478;-74
2022/08/25 06:55:39;;;;;;;1999.90;999.90;;;;;;;-144.65;100.00;64500.88;5003318;28;20390;-76
2022/08/25 06:58:05;;;;;;;1999.90;999.90;;;;;;;-144.65;100.00;64500.88;5001564;28;20491;-80
2022/08/25 07:00:32;;;;;;;1999.90;999.90;;;;;;;-144.65;100.00;64500.88;5008096;28;20022;-78
2022/08/25 07:04:39;;;;;;;1999.90;999.90;;;;;;;25.36;99.04;97953.34;5113108;27;20899;-76
2022/08/25 07:07:04;;;;;;;1999.90;999.90;;;;;;;25.74;95.22;97960.34;5108331;28;20036;-75
2022/08/25 07:09:30;;;;;;;1999.90;999.90;;;;;;;26.20;92.52;97962.50;5108264;28;20027;-82
2022/08/25 07:11:56;;;;;;;1999.90;999.90;;;;;;;26.67;88.94;97964.94;5108782;28;20028;-78
2022/08/25 07:14:22;;;;;;;1999.90;999.90;;;;;;;26.38;89.61;97964.13;5108251;28;20042;-73
2022/08/25 07:16:47;;;;;;;1999.90;999.90;;;;;;;26.73;87.80;97962.53;5108691;28;20027;-76
2022/08/25 07:19:13;;;;;;;1999.90;999.90;;;;;;;26.51;86.44;97961.72;5109238;28;20380;-76
2022/08/25 07:21:40;;;;;;;1999.90;999.90;;;;;;;27.24;83.22;97959.28;5107312;28;20065;-74
2022/08/25 07:24:11;;;;;;;1999.90;999.90;;;;;;;27.37;81.80;97960.44;5106098;28;20128;-75
2022/08/25 07:26:38;;;;;;;1999.90;999.90;;;;;;;28.15;79.54;97958.94;5107156;28;20024;-73
2022/08/25 07:29:08;;;;;;;1999.90;999.90;;;;;;;28.12;77.70;97962.59;5106124;28;20056;-74
2022/08/25 07:31:33;;;;;;;1999.90;999.90;;;;;;;26.74;77.63;97953.72;5093654;28;20067;-73
2022/08/25 07:36:43;;;;;;;1999.90;999.90;;;;;;;26.39;78.26;97951.69;5087448;28;20458;-74
2022/08/25 07:39:08;;;;;;;1999.90;999.90;;;;;;;25.58;80.37;97953.47;5090082;28;20036;-73
2022/08/25 07:41:39;;;;;;;1999.90;999.90;;;;;;;25.83;78.81;97954.38;5097101;28;20486;-73
2022/08/25 07:44:06;;;;;;;1999.90;999.90;;;;;;;25.54;81.45;97947.84;5107278;28;20386;-74
2022/08/25 07:46:32;;;;;;;1999.90;999.90;;;;;;;25.60;80.89;97948.28;5087726;28;20910;-74
2022/08/25 07:48:58;;;;;;;1999.90;999.90;;;;;;;25.91;78.49;97941.97;5086638;28;20376;-74
2022/08/25 07:51:24;;;;;;;1999.90;999.90;;;;;;;26.37;76.88;97954.13;5105357;28;20016;-75
2022/08/25 07:53:49;;;;;;;1999.90;999.90;;;;;;;27.20;71.44;97955.66;5107068;28;20026;-75
2022/08/25 07:56:16;;;;;;;1999.90;999.90;;;;;;;28.42;65.98;97950.69;5106867;28;20020;-75
2022/08/25 07:58:42;;;;;;;1999.90;999.90;;;;;;;31.54;57.84;97953.03;5086805;28;20036;-76
2022/08/25 08:01:14;;;;;;;1999.90;999.90;;;;;;;32.93;51.64;97965.69;5104664;28;20069;-74
2022/08/25 08:03:41;;;;;;;1999.90;999.90;;;;;;;32.01;51.66;97956.50;5116141;28;20576;-76
2022/08/25 08:06:09;;;;;;;1999.90;999.90;;;;;;;32.04;50.80;97958.47;5111708;28;20059;-76
2022/08/25 08:08:38;;;;;;;1999.90;999.90;;;;;;;29.64;58.15;97947.13;5107521;28;20028;-75
2022/08/25 08:11:04;;;;;;;1999.90;999.90;;;;;;;29.30;58.35;97949.16;5121235;27;20562;-75
2022/08/25 08:13:31;;;;;;;1999.90;999.90;;;;;;;28.00;64.09;97943.34;5106891;28;20020;-77
2022/08/25 08:15:57;;;;;;;1999.90;999.90;;;;;;;26.57;68.52;97952.50;5099428;28;20020;-76
2022/08/25 08:18:23;;;;;;;1999.90;999.90;;;;;;;25.92;71.54;97940.78;5101257;28;20353;-77
2022/08/25 08:20:48;;;;;;;1999.90;999.90;;;;;;;25.52;73.38;97939.84;5112771;28;20119;-77
2022/08/25 08:23:16;;;;;;;1999.90;999.90;;;;;;;26.09;72.15;97935.19;5099690;28;20116;-75
2022/08/25 08:25:41;;;;;;;1999.90;999.90;;;;;;;26.68;69.11;97932.06;5103093;28;20030;-76
2022/08/25 08:28:07;;;;;;;1999.90;999.90;;;;;;;26.90;68.25;97936.47;5107157;28;20106;-78
2022/08/25 08:30:32;;;;;;;1999.90;999.90;;;;;;;26.59;67.48;97924.06;5095997;28;20028;-76
2022/08/25 08:32:58;;;;;;;1999.90;999.90;;;;;;;26.10;70.18;97924.78;5096171;28;20067;-78
2022/08/25 08:35:23;;;;;;;1999.90;999.90;;;;;;;27.30;65.59;97924.75;5106913;28;20026;-76
2022/08/25 08:37:49;;;;;;;1999.90;999.90;;;;;;;27.04;66.78;97923.19;5097323;28;20134;-79
2022/08/25 08:40:17;;;;;;;1999.90;999.90;;;;;;;26.85;66.90;97925.63;5099370;28;20116;-84
2022/08/25 08:43:05;;;;;;;1999.90;999.90;;;;;;;26.95;66.89;97924.81;5099448;28;20062;-78
2022/08/25 08:45:45;;;;;;;1999.90;999.90;;;;;;;25.47;71.51;97920.56;5119470;28;20067;-79
2022/08/25 08:48:47;;;;;;;1999.90;999.90;;;;;;;26.30;68.87;97926.03;5114104;28;20099;-78
2022/08/25 08:51:28;;;;;;;1999.90;999.90;;;;;;;27.91;63.47;97928.91;5105257;28;20038;-78
2022/08/25 08:54:10;;;;;;;1999.90;999.90;;;;;;;28.53;60.41;97917.66;5096066;27;20097;-78
2022/08/25 08:56:40;;;;;;;1999.90;999.90;;;;;;;27.53;64.29;97915.84;5113360;28;20051;-76
2022/08/25 08:59:14;;;;;;;1999.90;999.90;;;;;;;26.76;67.22;97922.41;5111113;28;20031;-81
2022/08/25 09:01:56;;;;;;;1999.90;999.90;;;;;;;26.14;70.75;97914.38;5103444;28;20503;-79
2022/08/25 09:04:21;;;;;;;1999.90;999.90;;;;;;;26.84;67.26;97919.25;5083390;28;20069;-77
2022/08/25 09:06:49;;;;;;;1999.90;999.90;;;;;;;27.27;65.61;97913.50;5103520;28;20036;-79
2022/08/25 09:09:32;;;;;;;1999.90;999.90;;;;;;;27.11;66.08;97911.97;5104256;28;20023;-77
2022/08/25 09:12:03;;;;;;;1999.90;999.90;;;;;;;26.80;67.91;97912.00;5108766;28;20496;-72
2022/08/25 09:14:41;;;;;;;1999.90;999.90;;;;;;;26.93;66.42;97905.59;5089818;28;20142;-75
2022/08/25 09:17:28;;;;;;;1999.90;999.90;;;;;;;27.60;64.24;97902.56;5091056;28;20480;-77
2022/08/25 09:20:08;;;;;;;1999.90;999.90;;;;;;;28.44;61.22;97900.44;5108054;28;20106;-75
2022/08/25 09:22:36;;;;;;;1999.90;999.90;;;;;;;28.07;61.82;97900.28;5088536;28;20127;-77
2022/08/25 09:25:26;;;;;;;1999.90;999.90;;;;;;;26.97;64.30;97892.31;5091068;28;20486;-75
2022/08/25 09:28:11;;;;;;;1999.90;999.90;;;;;;;27.32;63.23;97888.59;5090492;28;20023;-75
2022/08/25 09:30:48;;;;;;;1999.90;999.90;;;;;;;26.55;65.63;97889.56;5097239;28;20059;-76
2022/08/25 09:33:25;;;;;;;1999.90;999.90;;;;;;;26.74;65.12;97880.72;5096698;28;20498;-76
2022/08/25 09:35:53;;;;;;;1999.90;999.90;;;;;;;26.90;65.37;97883.94;5093067;28;20020;-76
2022/08/25 09:38:19;;;;;;;1999.90;999.90;;;;;;;27.64;63.15;97880.84;5104397;28;20123;-76
2022/08/25 09:40:47;;;;;;;1999.90;999.90;;;;;;;28.34;60.94;97881.63;5090895;28;20020;-76
2022/08/25 09:43:27;;;;;;;1999.90;999.90;;;;;;;28.19;61.63;97880.91;5101874;28;20676;-75
2022/08/25 09:46:11;;;;;;;1999.90;999.90;;;;;;;28.69;59.08;97872.09;5092369;28;20064;-76
2022/08/25 09:48:49;;;;;;;1999.90;999.90;;;;;;;27.71;62.26;97879.22;5102295;28;20098;-75
2022/08/25 09:51:31;;;;;;;1999.90;999.90;;;;;;;27.29;62.87;97871.75;5103492;28;20015;-76
2022/08/25 09:54:02;;;;;;;1999.90;999.90;;;;;;;27.84;61.07;97871.91;5093301;28;20035;-76
2022/08/25 09:56:31;;;;;;;1999.90;999.90;;;;;;;27.82;60.60;97865.88;5103631;28;20475;-76
2022/08/25 09:59:18;;;;;;;1999.90;999.90;;;;;;;28.62;58.34;97861.66;5090768;28;20035;-75
2022/08/25 10:01:50;;;;;;;1999.90;999.90;;;;;;;28.65;58.58;97855.22;5106247;28;20032;-75
2022/08/25 10:04:24;;;;;;;1999.90;999.90;;;;;;;27.64;60.04;97855.56;5095415;28;20048;-75
2022/08/25 10:06:51;;;;;;;1999.90;999.90;;;;;;;28.43;59.01;97853.78;5101337;28;20039;-75
2022/08/25 10:09:33;;;;;;;1999.90;999.90;;;;;;;27.76;60.94;97854.25;5103738;28;20391;-75
2022/08/25 10:12:01;;;;;;;1999.90;999.90;;;;;;;28.01;59.33;97843.66;5090905;28;20032;-75
2022/08/25 10:14:34;;;;;;;1999.90;999.90;;;;;;;28.60;58.29;97843.59;5103530;28;20028;-75
2022/08/25 10:17:27;;;;;;;1999.90;999.90;;;;;;;28.15;59.31;97845.59;5089871;28;20024;-75
2022/08/25 10:20:24;;;;;;;1999.90;999.90;;;;;;;28.57;58.70;97831.13;5091948;28;20015;-74
2022/08/25 10:22:50;;;;;;;1999.90;999.90;;;;;;;29.11;56.16;97834.19;5095361;28;20036;-75
2022/08/25 10:25:29;;;;;;;1999.90;999.90;;;;;;;28.99;56.23;97829.09;5092085;28;20047;-75
2022/08/25 10:28:14;;;;;;;1999.90;999.90;;;;;;;27.59;60.76;97821.44;5093865;28;20020;-75
2022/08/25 10:31:09;;;;;;;1999.90;999.90;;;;;;;26.96;63.29;97811.28;5097234;28;20035;-75
2022/08/25 10:33:41;;;;;;;1999.90;999.90;;;;;;;27.08;62.85;97822.06;5094946;28;20107;-74
2022/08/25 10:36:19;;;;;;;1999.90;999.90;;;;;;;27.48;61.74;97807.44;5105668;28;20479;-76
2022/08/25 10:38:57;;;;;;;1999.90;999.90;;;;;;;27.01;63.67;97808.06;5098062;28;20027;-75
2022/08/25 10:41:41;;;;;;;1999.90;999.90;;;;;;;27.33;62.38;97803.09;5096833;28;20046;-75
2022/08/25 10:47:24;;;;;;;1999.90;999.90;;;;;;;26.94;63.68;97788.44;5103824;28;20046;-74
2022/08/25 10:49:59;;;;;;;1999.90;999.90;;;;;;;27.25;62.85;97792.31;5092527;28;20516;-76
2022/08/25 10:53:04;;;;;;;1999.90;999.90;;;;;;;27.77;62.02;97790.41;5103345;28;20016;-75
2022/08/25 10:55:35;;;;;;;1999.90;999.90;;;;;;;28.50;59.06;97783.34;5104847;28;20039;-74
2022/08/25 10:58:29;;;;;;;1999.90;999.90;;;;;;;28.80;58.06;97781.84;5093310;28;20020;-75
2022/08/25 11:01:17;;;;;;;1999.90;999.90;;;;;;;29.07;57.25;97783.50;5098726;28;20453;-74
2022/08/25 11:03:43;;;;;;;1999.90;999.90;;;;;;;29.49;55.86;97776.53;5106479;28;20055;-74